createdAt,value
2023-04-20T00:00:09.734Z,9.55
2023-04-20T00:02:37.620Z,9.68
2023-04-20T00:05:07.637Z,6.80
2023-04-20T00:07:34.460Z,8.80
2023-04-20T00:10:01.861Z,8.82
2023-04-20T00:12:28.715Z,10.57
2023-04-20T00:14:55.978Z,7.55
2023-04-20T00:17:22.777Z,10.75
2023-04-20T00:19:50.815Z,8.07
2023-04-20T00:22:17.717Z,8.60
2023-04-20T00:24:44.537Z,7.43
2023-04-20T00:27:12.181Z,7.50
2023-04-20T00:29:38.994Z,10.00
2023-04-20T00:32:06.713Z,11.27
2023-04-20T00:34:33.441Z,7.90
2023-04-20T00:37:00.267Z,10.10
2023-04-20T00:39:27.212Z,6.85
2023-04-20T00:41:53.934Z,9.45
2023-04-20T00:44:20.911Z,7.40
2023-04-20T00:46:47.770Z,10.20
2023-04-20T00:49:14.530Z,7.03
2023-04-20T00:51:41.449Z,12.23
2023-04-20T00:54:08.575Z,9.52
2023-04-20T00:56:35.691Z,7.68
2023-04-20T00:59:02.969Z,8.75
2023-04-20T01:01:29.974Z,11.15
2023-04-20T01:03:57.072Z,11.20
2023-04-20T01:06:23.908Z,9.60
2023-04-20T01:08:52.135Z,12.80
2023-04-20T01:11:19.222Z,10.95
2023-04-20T01:13:50.354Z,7.95
2023-04-20T01:16:17.571Z,10.52
2023-04-20T01:18:46.932Z,8.68
2023-04-20T01:21:15.521Z,9.60
2023-04-20T01:23:42.428Z,9.18
2023-04-20T01:26:10.692Z,10.50
2023-04-20T01:28:37.582Z,7.25
2023-04-20T01:31:05.090Z,8.30
2023-04-20T01:33:31.907Z,6.55
2023-04-20T01:35:58.805Z,8.95
2023-04-20T01:38:27.015Z,6.88
2023-04-20T01:40:55.097Z,7.13
2023-04-20T01:43:22.723Z,5.68
2023-04-20T01:45:49.375Z,5.50
2023-04-20T01:48:16.369Z,5.28
2023-04-20T01:50:43.134Z,4.68
2023-04-20T01:53:10.006Z,6.35
2023-04-20T01:55:37.131Z,4.30
2023-04-20T01:58:04.385Z,4.25
2023-04-20T02:00:31.286Z,4.07
2023-04-20T02:02:58.653Z,5.57
2023-04-20T02:05:28.560Z,5.25
2023-04-20T02:07:55.347Z,5.43
2023-04-20T02:10:22.039Z,4.18
2023-04-20T02:12:49.716Z,3.85
2023-04-20T02:15:16.895Z,6.30
2023-04-20T02:17:44.075Z,6.07
2023-04-20T02:20:11.917Z,3.47
2023-04-20T02:22:38.769Z,3.70
2023-04-20T02:25:06.382Z,4.22
2023-04-20T02:27:33.435Z,4.68
2023-04-20T02:30:00.798Z,4.15
2023-04-20T02:32:27.816Z,4.00
2023-04-20T02:34:54.519Z,3.90
2023-04-20T02:37:21.506Z,4.22
2023-04-20T02:39:48.457Z,4.15
2023-04-20T02:42:15.201Z,4.15
2023-04-20T02:44:41.880Z,4.15
2023-04-20T02:47:08.622Z,4.45
2023-04-20T02:49:36.096Z,4.28
2023-04-20T02:52:02.919Z,4.35
2023-04-20T02:54:29.769Z,4.70
2023-04-20T02:56:58.086Z,3.38
2023-04-20T02:59:25.175Z,3.55
2023-04-20T03:01:52.076Z,3.05
2023-04-20T03:04:19.659Z,3.53
2023-04-20T03:06:46.489Z,3.13
2023-04-20T03:09:13.471Z,3.38
2023-04-20T03:11:40.180Z,3.70
2023-04-20T03:14:07.132Z,3.28
2023-04-20T03:16:34.380Z,3.65
2023-04-20T03:19:01.183Z,3.15
2023-04-20T03:21:27.883Z,3.13
2023-04-20T03:23:54.762Z,4.13
2023-04-20T03:26:21.477Z,3.38
2023-04-20T03:28:50.416Z,3.75
2023-04-20T03:31:17.454Z,4.32
2023-04-20T03:33:44.169Z,2.92
2023-04-20T03:36:13.835Z,3.97
2023-04-20T03:38:40.686Z,2.97
2023-04-20T03:41:08.417Z,3.53
2023-04-20T03:43:35.398Z,3.47
2023-04-20T03:46:02.416Z,3.20
2023-04-20T03:48:29.223Z,3.15
2023-04-20T03:50:55.949Z,3.47
2023-04-20T03:53:23.482Z,3.03
2023-04-20T03:55:50.154Z,3.35
2023-04-20T03:58:17.968Z,4.15
2023-04-20T04:00:44.623Z,3.65
2023-04-20T04:03:11.462Z,4.20
2023-04-20T04:05:38.772Z,3.97
2023-04-20T04:08:06.070Z,3.35
2023-04-20T04:10:32.838Z,3.80
2023-04-20T04:13:00.208Z,3.83
2023-04-20T04:15:26.914Z,3.88
2023-04-20T04:17:54.408Z,3.45
2023-04-20T04:20:21.393Z,3.58
2023-04-20T04:22:48.087Z,3.35
2023-04-20T04:25:15.474Z,3.58
2023-04-20T04:27:42.406Z,3.38
2023-04-20T04:30:11.715Z,3.70
2023-04-20T04:32:38.450Z,3.38
2023-04-20T04:35:06.122Z,3.35
2023-04-20T04:37:32.861Z,3.42
2023-04-20T04:39:59.598Z,3.47
2023-04-20T04:42:27.875Z,3.55
2023-04-20T04:44:56.365Z,3.30
2023-04-20T04:47:23.966Z,3.63
2023-04-20T04:49:50.835Z,3.05
2023-04-20T04:52:18.214Z,4.25
2023-04-20T04:54:45.257Z,3.70
2023-04-20T04:57:12.551Z,4.85
2023-04-20T04:59:39.399Z,6.03
2023-04-20T05:02:06.409Z,3.90
2023-04-20T05:04:33.260Z,4.40
2023-04-20T05:07:00.212Z,4.43
2023-04-20T05:09:33.463Z,4.45
2023-04-20T05:12:01.208Z,5.30
2023-04-20T05:14:27.872Z,4.25
2023-04-20T05:16:54.866Z,6.60
2023-04-20T05:19:21.586Z,6.07
2023-04-20T05:21:49.531Z,7.68
2023-04-20T05:24:18.183Z,7.05
2023-04-20T05:26:45.430Z,6.10
2023-04-20T05:29:12.505Z,5.78
2023-04-20T05:31:39.213Z,5.85
2023-04-20T05:34:06.214Z,5.22
2023-04-20T05:36:33.993Z,5.38
2023-04-20T05:39:01.136Z,4.75
2023-04-20T05:41:28.798Z,4.82
2023-04-20T05:43:55.809Z,4.95
2023-04-20T05:46:23.455Z,5.55
2023-04-20T05:48:50.239Z,4.90
2023-04-20T05:51:17.026Z,4.40
2023-04-20T05:53:43.834Z,5.20
2023-04-20T05:56:11.130Z,4.28
2023-04-20T05:58:37.973Z,4.40
2023-04-20T06:01:05.218Z,4.60
2023-04-20T06:03:32.568Z,3.83
2023-04-20T06:05:59.793Z,4.47
2023-04-20T06:08:26.954Z,4.60
2023-04-20T06:10:56.204Z,7.00
2023-04-20T06:13:23.267Z,4.40
2023-04-20T06:15:50.479Z,4.68
2023-04-20T06:18:17.882Z,4.32
2023-04-20T06:20:44.840Z,4.47
2023-04-20T06:23:12.122Z,4.35
2023-04-20T06:25:39.252Z,4.50
2023-04-20T06:28:07.065Z,5.32
2023-04-20T06:30:34.924Z,5.43
2023-04-20T06:33:02.489Z,5.00
2023-04-20T06:35:29.888Z,6.43
2023-04-20T06:37:57.995Z,6.45
2023-04-20T06:40:28.994Z,5.75
2023-04-20T06:42:55.705Z,6.28
2023-04-20T06:45:22.733Z,6.45
2023-04-20T06:47:49.541Z,7.80
2023-04-20T06:50:16.814Z,7.90
2023-04-20T06:52:43.628Z,8.20
2023-04-20T06:55:10.932Z,7.65
2023-04-20T06:57:40.206Z,8.88
2023-04-20T07:00:08.945Z,9.45
2023-04-20T07:02:51.383Z,9.02
2023-04-20T07:05:18.807Z,10.93
2023-04-20T07:07:45.718Z,9.55
2023-04-20T07:10:14.152Z,8.95
2023-04-20T07:12:43.750Z,9.13
2023-04-20T07:15:11.752Z,9.40
2023-04-20T07:17:39.258Z,11.38
2023-04-20T07:20:08.899Z,10.18
2023-04-20T07:22:36.686Z,12.18
2023-04-20T07:25:08.517Z,11.90
2023-04-20T07:27:37.800Z,12.80
2023-04-20T07:30:06.960Z,12.63
2023-04-20T07:32:36.571Z,12.95
2023-04-20T07:35:04.182Z,14.70
2023-04-20T07:37:32.883Z,14.55
2023-04-20T07:39:59.982Z,16.42
2023-04-20T07:42:26.998Z,14.75
2023-04-20T07:44:54.765Z,16.95
2023-04-20T07:47:21.594Z,17.42
2023-04-20T07:49:48.890Z,16.48
2023-04-20T07:52:17.306Z,16.52
2023-04-20T07:54:45.468Z,19.65
2023-04-20T07:57:12.648Z,18.50
2023-04-20T07:59:40.884Z,18.90
2023-04-20T08:02:08.876Z,18.80
2023-04-20T08:04:39.243Z,18.65
2023-04-20T08:07:06.296Z,19.52
2023-04-20T08:09:33.161Z,17.35
2023-04-20T08:12:00.791Z,19.02
2023-04-20T08:14:27.751Z,22.60
2023-04-20T08:16:54.533Z,21.92
2023-04-20T08:19:21.408Z,21.45
2023-04-20T08:21:48.251Z,20.05
2023-04-20T08:24:15.006Z,20.65
2023-04-20T08:26:44.233Z,21.75
2023-04-20T08:29:11.154Z,19.20
2023-04-20T08:31:38.259Z,19.13
2023-04-20T08:34:05.136Z,16.20
2023-04-20T08:36:32.378Z,18.50
2023-04-20T08:39:18.960Z,18.83
2023-04-20T08:41:45.756Z,17.42
2023-04-20T08:44:12.505Z,19.92
2023-04-20T08:46:41.739Z,18.60
2023-04-20T08:49:12.301Z,17.58
2023-04-20T08:51:42.721Z,19.45
2023-04-20T08:54:11.020Z,20.85
2023-04-20T08:56:45.411Z,17.67
2023-04-20T08:59:14.735Z,17.00
2023-04-20T09:01:42.777Z,17.05
2023-04-20T09:04:29.390Z,16.23
2023-04-20T09:06:56.848Z,17.48
2023-04-20T09:09:25.740Z,19.83
2023-04-20T09:12:07.533Z,16.73
2023-04-20T09:14:48.765Z,15.27
2023-04-20T09:17:18.222Z,12.95
2023-04-20T09:19:46.252Z,16.42
2023-04-20T09:22:13.151Z,12.95
2023-04-20T09:24:41.417Z,12.35
2023-04-20T09:27:20.104Z,12.77
2023-04-20T09:30:01.540Z,13.95
2023-04-20T09:32:33.208Z,11.35
2023-04-20T09:35:00.212Z,10.55
2023-04-20T09:37:27.049Z,14.00
2023-04-20T09:39:56.617Z,12.98
2023-04-20T09:42:25.220Z,12.27
2023-04-20T09:44:53.051Z,15.18
2023-04-20T09:47:19.908Z,14.88
2023-04-20T09:49:49.735Z,14.13
2023-04-20T09:52:18.707Z,13.05
2023-04-20T09:54:45.749Z,14.23
2023-04-20T09:57:14.341Z,14.10
2023-04-20T09:59:47.027Z,14.63
2023-04-20T10:02:14.257Z,13.57
2023-04-20T10:04:57.745Z,16.50
2023-04-20T10:07:26.709Z,14.70
2023-04-20T10:10:08.007Z,14.38
2023-04-20T10:12:37.405Z,14.35
2023-04-20T10:15:04.711Z,14.00
2023-04-20T10:17:32.714Z,14.73
2023-04-20T10:19:59.864Z,11.40
2023-04-20T10:22:33.042Z,12.77
2023-04-20T10:25:02.210Z,15.73
2023-04-20T10:27:29.208Z,11.50
2023-04-20T10:29:55.927Z,12.95
2023-04-20T10:32:27.767Z,10.98
2023-04-20T10:35:21.420Z,11.77
2023-04-20T10:37:52.327Z,11.05
2023-04-20T10:40:27.407Z,10.18
2023-04-20T10:42:54.253Z,10.80
2023-04-20T10:45:22.383Z,11.13
2023-04-20T10:47:49.329Z,10.75
2023-04-20T10:50:19.175Z,11.13
2023-04-20T10:52:46.208Z,9.40
2023-04-20T10:55:20.882Z,9.13
2023-04-20T10:57:48.553Z,9.63
2023-04-20T11:00:20.707Z,9.43
2023-04-20T11:02:52.361Z,11.27
2023-04-20T11:05:20.497Z,10.45
2023-04-20T11:07:59.036Z,8.18
2023-04-20T11:10:41.389Z,9.68
2023-04-20T11:13:19.687Z,8.88
2023-04-20T11:15:46.664Z,10.52
2023-04-20T11:18:13.558Z,9.32
2023-04-20T11:20:59.146Z,8.95
2023-04-20T11:23:27.881Z,9.20
2023-04-20T11:25:57.118Z,9.48
2023-04-20T11:28:24.493Z,9.25
2023-04-20T11:30:51.547Z,10.32
2023-04-20T11:33:29.296Z,8.20
2023-04-20T11:35:57.718Z,8.52
2023-04-20T11:38:33.563Z,9.65
2023-04-20T11:41:04.952Z,8.75
2023-04-20T11:43:38.425Z,11.05
2023-04-20T11:46:17.175Z,12.10
2023-04-20T11:48:44.671Z,10.48
2023-04-20T11:51:11.872Z,12.25
2023-04-20T11:53:38.898Z,10.63
2023-04-20T11:56:06.658Z,10.32
2023-04-20T11:58:33.784Z,9.85
2023-04-20T12:01:00.578Z,11.63
2023-04-20T12:03:27.790Z,10.30
2023-04-20T12:05:55.115Z,10.70
2023-04-20T12:08:22.302Z,9.45
2023-04-20T12:10:49.986Z,10.45
2023-04-20T12:13:16.981Z,9.25
2023-04-20T12:15:43.945Z,9.25
2023-04-20T12:18:11.326Z,9.50
2023-04-20T12:20:38.267Z,8.98
2023-04-20T12:23:05.209Z,9.55
2023-04-20T12:25:32.878Z,10.93
2023-04-20T12:27:59.864Z,10.88
2023-04-20T12:30:26.927Z,7.75
2023-04-20T12:32:54.001Z,8.50
2023-04-20T12:35:21.275Z,9.02
2023-04-20T12:37:48.178Z,7.07
2023-04-20T12:40:15.210Z,8.18
2023-04-20T12:42:42.095Z,9.20
2023-04-20T12:45:09.159Z,7.93
2023-04-20T12:47:36.091Z,7.60
2023-04-20T12:50:03.581Z,8.45
2023-04-20T12:52:30.657Z,8.02
2023-04-20T12:54:57.377Z,8.35
2023-04-20T12:57:24.451Z,9.15
2023-04-20T12:59:51.575Z,7.97
2023-04-20T13:02:18.732Z,8.48
2023-04-20T13:04:46.431Z,8.95
2023-04-20T13:07:13.377Z,12.50
2023-04-20T13:09:40.157Z,9.00
2023-04-20T13:12:07.570Z,10.13
2023-04-20T13:14:34.599Z,11.70
2023-04-20T13:17:02.484Z,9.70
2023-04-20T13:19:30.439Z,10.80
2023-04-20T13:21:57.687Z,12.10
2023-04-20T13:24:24.982Z,12.13
2023-04-20T13:26:56.971Z,12.43
2023-04-20T13:29:25.446Z,15.50
2023-04-20T13:31:52.595Z,14.68
2023-04-20T13:34:19.684Z,14.88
2023-04-20T13:36:46.654Z,14.40
2023-04-20T13:39:14.393Z,18.30
2023-04-20T13:41:41.156Z,16.70
2023-04-20T13:44:09.929Z,16.85
2023-04-20T13:46:37.010Z,22.42
2023-04-20T13:49:03.865Z,16.60
2023-04-20T13:51:31.372Z,22.50
2023-04-20T13:53:58.226Z,17.65
2023-04-20T13:56:25.173Z,17.50
2023-04-20T13:58:52.020Z,16.85
2023-04-20T14:01:18.857Z,17.30
2023-04-20T14:03:45.881Z,20.90
2023-04-20T14:06:13.252Z,16.30
2023-04-20T14:08:40.186Z,19.45
2023-04-20T14:11:07.129Z,17.55
2023-04-20T14:13:34.006Z,14.98
2023-04-20T14:16:00.824Z,17.02
2023-04-20T14:18:27.660Z,20.55
2023-04-20T14:20:55.419Z,17.52
2023-04-20T14:23:22.221Z,98.60
2023-04-20T14:25:48.925Z,20.08
2023-04-20T14:28:16.986Z,15.80
2023-04-20T14:30:45.629Z,17.98
2023-04-20T14:33:13.468Z,16.67
2023-04-20T14:35:40.653Z,17.92
2023-04-20T14:38:07.380Z,17.13
2023-04-20T14:40:34.216Z,16.85
2023-04-20T14:43:01.037Z,17.20
2023-04-20T14:45:28.175Z,15.75
2023-04-20T14:47:56.241Z,15.18
2023-04-20T14:50:25.456Z,16.10
2023-04-20T14:52:53.268Z,15.65
2023-04-20T14:55:24.081Z,16.50
2023-04-20T14:57:54.922Z,17.20
2023-04-20T15:00:24.047Z,18.40
2023-04-20T15:02:52.125Z,18.40
2023-04-20T15:05:19.465Z,15.70
2023-04-20T15:07:46.344Z,16.00
2023-04-20T15:10:13.117Z,17.80
2023-04-20T15:12:39.961Z,15.65
2023-04-20T15:15:07.475Z,48.30
2023-04-20T15:17:34.176Z,17.80
2023-04-20T15:20:01.012Z,36.05
2023-04-20T15:22:27.896Z,16.15
2023-04-20T15:24:55.186Z,15.38
2023-04-20T15:27:22.190Z,54.85
2023-04-20T15:29:48.914Z,19.92
2023-04-20T15:32:15.786Z,14.57
2023-04-20T15:34:42.964Z,15.35
2023-04-20T15:37:09.678Z,14.73
2023-04-20T15:39:36.694Z,18.63
2023-04-20T15:42:03.501Z,15.18
2023-04-20T15:44:30.180Z,14.57
2023-04-20T15:46:58.378Z,15.00
2023-04-20T15:49:25.403Z,13.98
2023-04-20T15:51:52.087Z,13.82
2023-04-20T15:54:23.919Z,13.60
2023-04-20T15:56:51.369Z,13.82
2023-04-20T15:59:20.207Z,14.77
2023-04-20T16:01:47.494Z,15.80
2023-04-20T16:04:14.678Z,20.33
2023-04-20T16:06:41.704Z,17.88
2023-04-20T16:09:08.528Z,17.90
2023-04-20T16:11:35.724Z,18.42
2023-04-20T16:14:02.535Z,16.63
2023-04-20T16:16:29.661Z,15.57
2023-04-20T16:18:56.582Z,16.02
2023-04-20T16:21:23.808Z,16.33
2023-04-20T16:23:54.922Z,15.48
2023-04-20T16:26:22.018Z,20.17
2023-04-20T16:28:49.047Z,15.73
2023-04-20T16:31:16.064Z,18.15
2023-04-20T16:33:43.528Z,20.30
2023-04-20T16:36:10.693Z,17.48
2023-04-20T16:38:37.539Z,17.55
2023-04-20T16:41:04.772Z,20.33
2023-04-20T16:43:31.774Z,18.85
2023-04-20T16:45:59.051Z,20.88
2023-04-20T16:48:25.935Z,23.92
2023-04-20T16:50:52.999Z,25.02
2023-04-20T16:53:19.840Z,26.17
2023-04-20T16:55:46.560Z,26.73
2023-04-20T16:58:14.120Z,26.10
2023-04-20T17:00:41.493Z,23.55
2023-04-20T17:03:10.965Z,24.65
2023-04-20T17:05:41.619Z,25.02
2023-04-20T17:08:08.931Z,23.50
2023-04-20T17:10:37.592Z,28.67
2023-04-20T17:13:04.806Z,27.30
2023-04-20T17:15:31.895Z,28.95
2023-04-20T17:17:59.502Z,29.00
2023-04-20T17:20:26.441Z,30.83
2023-04-20T17:22:53.224Z,31.40
2023-04-20T17:25:20.361Z,29.30
2023-04-20T17:27:47.438Z,28.25
2023-04-20T17:30:14.411Z,31.38
2023-04-20T17:32:41.406Z,30.80
2023-04-20T17:35:08.643Z,32.10
2023-04-20T17:37:37.079Z,33.58
2023-04-20T17:40:05.481Z,35.95
2023-04-20T17:42:32.621Z,35.67
2023-04-20T17:44:59.290Z,34.85
2023-04-20T17:47:26.183Z,36.92
2023-04-20T17:49:53.088Z,35.17
2023-04-20T17:52:22.534Z,35.88
2023-04-20T17:54:49.360Z,38.75
2023-04-20T17:57:16.244Z,35.58
2023-04-20T17:59:42.993Z,35.47
2023-04-20T18:02:10.586Z,37.30
2023-04-20T18:04:37.862Z,36.35
2023-04-20T18:07:05.580Z,35.80
2023-04-20T18:09:32.672Z,35.97
2023-04-20T18:11:59.396Z,40.72
2023-04-20T18:14:26.148Z,39.22
2023-04-20T18:16:55.200Z,36.67
2023-04-20T18:19:22.128Z,36.70
2023-04-20T18:21:49.015Z,37.80
2023-04-20T18:24:16.116Z,38.83
2023-04-20T18:26:43.029Z,37.60
2023-04-20T18:29:09.863Z,37.00
2023-04-20T18:31:36.807Z,37.75
2023-04-20T18:34:04.074Z,38.50
2023-04-20T18:36:31.553Z,39.80
2023-04-20T18:38:58.339Z,37.33
2023-04-20T18:41:25.974Z,38.80
2023-04-20T18:43:53.689Z,39.88
2023-04-20T18:46:20.595Z,39.78
2023-04-20T18:48:47.505Z,38.85
2023-04-20T18:51:14.415Z,38.75
2023-04-20T18:53:41.119Z,38.75
2023-04-20T18:56:09.763Z,40.45
2023-04-20T18:58:37.151Z,39.28
2023-04-20T19:01:04.689Z,40.72
2023-04-20T19:03:32.474Z,41.45
2023-04-20T19:05:59.668Z,40.67
2023-04-20T19:08:26.517Z,39.72
2023-04-20T19:10:56.736Z,39.88
2023-04-20T19:13:24.219Z,41.78
2023-04-20T19:15:51.197Z,41.45
2023-04-20T19:18:18.005Z,38.88
2023-04-20T19:20:44.891Z,42.22
2023-04-20T19:23:12.026Z,44.25
2023-04-20T19:25:38.885Z,44.55
2023-04-20T19:28:08.463Z,42.03
2023-04-20T19:30:36.202Z,42.85
2023-04-20T19:33:05.440Z,42.03
2023-04-20T19:35:32.555Z,41.80
2023-04-20T19:37:59.821Z,42.08
2023-04-20T19:40:27.528Z,40.95
2023-04-20T19:42:54.216Z,41.17
2023-04-20T19:45:21.183Z,41.42
2023-04-20T19:47:48.018Z,39.80
2023-04-20T19:50:15.087Z,37.92
2023-04-20T19:52:42.170Z,39.78
2023-04-20T19:55:09.636Z,41.63
2023-04-20T19:57:36.430Z,42.53
2023-04-20T20:00:05.001Z,40.83
2023-04-20T20:02:32.126Z,44.40
2023-04-20T20:04:58.929Z,46.08
2023-04-20T20:07:26.747Z,46.05
2023-04-20T20:09:53.625Z,42.88
2023-04-20T20:12:20.404Z,45.15
2023-04-20T20:14:47.490Z,42.95
2023-04-20T20:17:14.257Z,39.45
2023-04-20T20:19:43.550Z,50.22
2023-04-20T20:22:10.562Z,46.05
2023-04-20T20:24:37.858Z,46.38
2023-04-20T20:27:05.103Z,47.38
2023-04-20T20:29:31.897Z,47.17
2023-04-20T20:31:58.590Z,51.67
2023-04-20T20:34:25.781Z,48.10
2023-04-20T20:36:53.524Z,47.35
2023-04-20T20:39:20.516Z,44.92
2023-04-20T20:41:47.923Z,48.40
2023-04-20T20:44:15.301Z,45.65
2023-04-20T20:46:42.507Z,50.63
2023-04-20T20:49:09.540Z,50.08
2023-04-20T20:51:36.591Z,52.25
2023-04-20T20:54:03.741Z,54.72
2023-04-20T20:56:30.464Z,51.22
2023-04-20T20:58:57.320Z,52.03
2023-04-20T21:01:24.113Z,46.78
2023-04-20T21:03:51.014Z,47.22
2023-04-20T21:06:18.378Z,48.17
2023-04-20T21:08:45.085Z,53.15
2023-04-20T21:11:11.804Z,48.38
2023-04-20T21:13:38.603Z,50.20
2023-04-20T21:16:05.740Z,49.30
2023-04-20T21:18:33.186Z,49.40
2023-04-20T21:20:59.883Z,47.92
2023-04-20T21:23:26.736Z,49.53
2023-04-20T21:25:53.383Z,50.20
2023-04-20T21:28:20.134Z,47.80
2023-04-20T21:30:46.920Z,52.42
2023-04-20T21:33:13.915Z,52.47
2023-04-20T21:35:40.703Z,52.80
2023-04-20T21:38:07.545Z,54.10
2023-04-20T21:40:34.498Z,54.33
2023-04-20T21:43:01.330Z,56.50
2023-04-20T21:45:28.221Z,52.67
2023-04-20T21:47:55.763Z,56.13
2023-04-20T21:50:27.266Z,56.13
2023-04-20T21:52:54.834Z,59.97
2023-04-20T21:55:21.741Z,58.13
2023-04-20T21:57:48.583Z,57.42
2023-04-20T22:00:16.085Z,59.95
2023-04-20T22:02:43.083Z,55.10
2023-04-20T22:05:11.082Z,57.72
2023-04-20T22:07:38.977Z,55.90
2023-04-20T22:10:07.342Z,58.20
2023-04-20T22:12:39.616Z,62.22
2023-04-20T22:15:11.213Z,60.00
2023-04-20T22:17:38.263Z,57.92
2023-04-20T22:20:07.931Z,59.80
2023-04-20T22:22:35.556Z,58.35
2023-04-20T22:25:03.367Z,57.95
2023-04-20T22:27:30.374Z,58.47
2023-04-20T22:29:57.285Z,56.75
2023-04-20T22:32:24.210Z,61.47
2023-04-20T22:34:51.210Z,57.65
2023-04-20T22:37:17.979Z,54.22
2023-04-20T22:39:45.029Z,60.25
2023-04-20T22:42:12.045Z,59.80
2023-04-20T22:44:38.787Z,51.72
2023-04-20T22:47:06.023Z,56.70
2023-04-20T22:49:32.991Z,58.20
2023-04-20T22:51:59.759Z,59.00
2023-04-20T22:54:26.610Z,54.97
2023-04-20T22:56:53.742Z,53.83
2023-04-20T22:59:20.820Z,53.75
2023-04-20T23:01:47.758Z,51.95
2023-04-20T23:04:14.634Z,54.28
2023-04-20T23:06:44.027Z,57.00
2023-04-20T23:09:13.491Z,55.25
2023-04-20T23:11:40.487Z,51.85
2023-04-20T23:14:08.176Z,56.72
2023-04-20T23:16:35.604Z,57.30
2023-04-20T23:19:02.356Z,54.13
2023-04-20T23:21:29.180Z,54.30
2023-04-20T23:23:59.562Z,52.92
2023-04-20T23:26:26.299Z,53.30
2023-04-20T23:28:53.795Z,58.25
2023-04-20T23:31:21.452Z,53.92
2023-04-20T23:33:48.344Z,52.67
2023-04-20T23:36:15.273Z,55.78
2023-04-20T23:38:42.469Z,54.00
2023-04-20T23:41:10.836Z,55.80
2023-04-20T23:43:39.088Z,53.08
2023-04-20T23:46:06.752Z,55.75
2023-04-20T23:48:34.059Z,52.88
2023-04-20T23:51:02.011Z,59.50
2023-04-20T23:53:28.965Z,52.10
2023-04-20T23:55:55.888Z,54.80
2023-04-20T23:58:26.692Z,53.75
